Time;durP1;ratioP1;P1;durP2;ratioP2;P2;SDS_P1;SDS_P2;PMS_P1;PMS_P2;Temp;Humidity;BMP_temperature;BMP_pressure;BME280_temperature;BME280_humidity;BME280_pressure;Samples;Min_cycle;Max_cycle;Signal;HPM_P1;HPM_P2
2022/03/04 00:00:11;;;;;;;19.93;12.67;;;;;;;2.93;46.45;99024.75;4175038;28;20266;-41
2022/03/04 00:02:13;;;;;;;15.33;12.27;;;;;;;3.10;46.38;99016.28;4173728;28;20285;-43
2022/03/04 00:04:15;;;;;;;19.57;13.07;;;;;;;2.99;46.46;99017.19;4173827;28;20241;-44
2022/03/04 00:06:17;;;;;;;18.60;12.43;;;;;;;3.33;45.90;99008.22;4176495;28;20304;-40
2022/03/04 00:08:19;;;;;;;20.53;13.73;;;;;;;3.08;46.53;99020.84;4187103;28;20225;-43
2022/03/04 00:10:21;;;;;;;18.77;13.23;;;;;;;3.14;46.54;99017.66;4177503;28;20238;-46
2022/03/04 00:12:22;;;;;;;18.60;13.33;;;;;;;2.97;46.67;99021.72;4177029;28;20756;-42
2022/03/04 00:14:27;;;;;;;16.90;12.80;;;;;;;3.18;46.63;99013.84;4184892;28;20319;-44
2022/03/04 00:16:29;;;;;;;17.90;13.53;;;;;;;2.98;46.77;99025.19;4185751;28;20233;-44
2022/03/04 00:18:31;;;;;;;18.47;13.43;;;;;;;2.97;46.94;99028.75;4181780;28;20229;-43
2022/03/04 00:20:33;;;;;;;19.80;13.20;;;;;;;2.87;47.67;99022.63;4188841;28;20314;-43
2022/03/04 00:22:35;;;;;;;19.33;13.63;;;;;;;2.92;46.67;99026.50;4181954;28;20707;-46
2022/03/04 00:24:37;;;;;;;17.07;13.33;;;;;;;2.91;47.13;99029.25;4179749;28;20237;-44
2022/03/04 00:26:39;;;;;;;19.67;12.70;;;;;;;2.90;47.23;99031.06;4176311;28;20695;-42
2022/03/04 00:28:41;;;;;;;18.17;14.07;;;;;;;2.83;47.33;99022.88;4186929;28;20565;-42
2022/03/04 00:30:45;;;;;;;17.03;12.87;;;;;;;3.05;47.05;99010.56;4192554;28;20332;-41
2022/03/04 00:32:47;;;;;;;18.33;13.30;;;;;;;3.25;46.68;99010.69;4184484;28;20226;-41
2022/03/04 00:34:48;;;;;;;18.67;13.57;;;;;;;3.28;46.68;99002.53;4174758;28;20233;-42
2022/03/04 00:36:50;;;;;;;20.90;14.13;;;;;;;3.18;46.78;99018.28;4176868;28;20234;-45
2022/03/04 00:38:54;;;;;;;18.37;12.43;;;;;;;2.90;47.19;99019.75;4184196;28;20233;-42
2022/03/04 00:40:55;;;;;;;21.20;14.27;;;;;;;2.73;47.54;99019.34;4174530;28;20232;-41
2022/03/04 00:42:57;;;;;;;19.53;13.97;;;;;;;2.87;47.41;99014.75;4183262;28;20224;-44
2022/03/04 00:44:59;;;;;;;17.60;13.47;;;;;;;2.96;47.29;99012.19;4168203;28;20243;-44
2022/03/04 00:47:01;;;;;;;18.07;13.93;;;;;;;2.49;48.05;99023.97;4168315;28;20238;-41
2022/03/04 00:49:04;;;;;;;17.90;14.43;;;;;;;2.85;47.89;99011.41;4178601;28;20260;-45
2022/03/04 00:51:06;;;;;;;18.47;13.13;;;;;;;2.87;47.79;99012.13;4176418;28;20279;-46
2022/03/04 00:53:08;;;;;;;16.70;12.93;;;;;;;3.01;47.41;99004.75;4175904;28;20233;-43
2022/03/04 00:55:09;;;;;;;18.73;13.83;;;;;;;2.68;47.87;99018.88;4185877;28;20310;-42
2022/03/04 00:57:11;;;;;;;19.40;13.07;;;;;;;2.71;48.08;99012.56;4189157;28;20244;-42
2022/03/04 00:59:14;;;;;;;18.13;13.20;;;;;;;2.71;48.08;99007.31;4176188;28;20654;-42
2022/03/04 01:01:16;;;;;;;20.43;14.50;;;;;;;2.88;47.85;99003.28;4175677;28;20299;-39
2022/03/04 01:03:18;;;;;;;21.07;14.43;;;;;;;2.55;48.30;99012.97;4169847;28;20236;-44
2022/03/04 01:05:20;;;;;;;17.93;13.37;;;;;;;2.74;48.45;99001.78;4177366;28;20614;-44
2022/03/04 01:07:21;;;;;;;17.23;13.37;;;;;;;2.51;48.72;98995.81;4182654;28;20343;-45
2022/03/04 01:09:23;;;;;;;16.23;12.57;;;;;;;2.67;48.36;98996.19;4176198;28;20690;-42
2022/03/04 01:11:25;;;;;;;16.70;13.03;;;;;;;2.72;48.27;98999.28;4179015;28;20565;-43
2022/03/04 01:13:27;;;;;;;19.90;14.10;;;;;;;2.54;48.64;99006.03;4188211;28;20248;-45
2022/03/04 01:15:28;;;;;;;16.27;12.23;;;;;;;2.70;48.13;98998.59;4179143;28;20228;-45
2022/03/04 01:17:30;;;;;;;19.00;13.27;;;;;;;2.62;48.69;98993.97;4175088;28;20223;-44
2022/03/04 01:19:32;;;;;;;25.07;14.83;;;;;;;2.66;48.62;98997.19;4176106;28;20224;-41
2022/03/04 01:21:34;;;;;;;19.53;13.40;;;;;;;2.81;48.39;98982.78;4176071;28;20702;-45
2022/03/04 01:23:36;;;;;;;22.80;15.20;;;;;;;2.36;49.03;99006.59;4175031;28;20232;-44
2022/03/04 01:25:38;;;;;;;20.23;14.70;;;;;;;2.51;49.04;98990.56;4180861;28;20603;-40
2022/03/04 01:27:40;;;;;;;18.23;14.27;;;;;;;2.49;49.29;98984.59;4178580;28;20772;-42
2022/03/04 01:29:41;;;;;;;21.13;15.53;;;;;;;2.40;49.26;98987.03;4183533;28;20233;-40
2022/03/04 01:31:43;;;;;;;18.43;14.23;;;;;;;2.40;49.42;98991.44;4175897;28;20227;-39
2022/03/04 01:33:45;;;;;;;22.27;16.27;;;;;;;2.08;49.79;98998.34;4181690;28;20239;-42
2022/03/04 01:35:47;;;;;;;20.10;14.43;;;;;;;2.17;49.98;98988.91;4177063;28;20236;-39
2022/03/04 01:37:49;;;;;;;18.77;15.30;;;;;;;2.26;49.54;98982.88;4175557;28;20236;-43
2022/03/04 01:39:50;;;;;;;20.40;15.40;;;;;;;1.76;50.37;98990.38;4190559;28;20285;-40
2022/03/04 01:41:53;;;;;;;23.37;17.30;;;;;;;2.33;49.71;98972.72;4175723;28;20237;-40
2022/03/04 01:43:55;;;;;;;20.57;15.60;;;;;;;2.21;49.82;98981.59;4175924;28;20234;-40
2022/03/04 01:46:11;;;;;;;17.07;12.83;;;;;;;2.14;49.90;98981.28;4175793;28;20280;-41
2022/03/04 01:48:13;;;;;;;18.80;13.30;;;;;;;2.11;49.78;98978.88;4177247;28;20255;-43
2022/03/04 01:50:15;;;;;;;19.50;12.83;;;;;;;2.44;49.59;98962.19;4176129;28;20228;-40
2022/03/04 01:52:17;;;;;;;19.73;12.80;;;;;;;2.56;49.33;98968.22;4176357;28;20231;-43
2022/03/04 01:54:19;;;;;;;18.40;11.83;;;;;;;2.58;49.13;98968.09;4180496;28;20611;-43
2022/03/04 01:56:21;;;;;;;18.07;13.17;;;;;;;2.20;49.96;98979.94;4180051;28;20238;-41
2022/03/04 01:58:24;;;;;;;20.30;13.77;;;;;;;2.44;49.41;98970.06;4175165;28;20228;-40
2022/03/04 02:00:26;;;;;;;17.47;12.47;;;;;;;2.39;49.52;98977.50;4186591;28;20228;-42
2022/03/04 02:02:28;;;;;;;22.40;14.10;;;;;;;2.72;49.37;98945.94;4184986;28;20230;-45
2022/03/04 02:04:30;;;;;;;18.37;12.77;;;;;;;2.50;49.68;98958.22;4179491;28;20259;-43
2022/03/04 02:06:32;;;;;;;18.00;12.43;;;;;;;2.09;50.25;98975.56;4171993;28;20631;-42
2022/03/04 02:08:34;;;;;;;21.27;14.07;;;;;;;2.48;49.63;98964.56;4175349;28;20281;-44
2022/03/04 02:10:36;;;;;;;20.40;12.67;;;;;;;2.46;49.81;98964.69;4174769;28;20228;-41
2022/03/04 02:12:38;;;;;;;19.00;11.63;;;;;;;2.41;49.84;98962.44;4174450;28;20521;-42
2022/03/04 02:14:40;;;;;;;17.83;12.53;;;;;;;2.01;50.36;98968.31;4173182;28;20288;-42
2022/03/04 02:16:50;;;;;;;17.37;13.57;;;;;;;1.86;51.20;98962.53;4184496;28;20715;-46
2022/03/04 02:18:52;;;;;;;17.03;13.50;;;;;;;2.05;50.83;98968.91;4177008;28;20316;-46
2022/03/04 02:21:00;;;;;;;20.97;13.53;;;;;;;1.98;50.99;98962.47;4167545;28;20279;-39
2022/03/04 02:23:02;;;;;;;20.20;12.87;;;;;;;1.81;51.27;98974.31;4178545;28;20273;-41
2022/03/04 02:25:05;;;;;;;18.37;13.40;;;;;;;1.69;51.38;98969.09;4174082;28;20231;-42
2022/03/04 02:27:08;;;;;;;17.67;12.90;;;;;;;1.76;51.62;98960.72;4175933;28;20236;-40
2022/03/04 02:29:10;;;;;;;17.93;12.00;;;;;;;1.79;51.63;98953.47;4172776;28;20370;-41
2022/03/04 02:31:16;;;;;;;15.80;12.90;;;;;;;1.65;52.02;98962.41;4174918;28;20236;-45
2022/03/04 02:33:17;;;;;;;19.30;13.57;;;;;;;1.55;52.01;98958.84;4188423;28;20292;-42
2022/03/04 02:35:19;;;;;;;18.27;13.97;;;;;;;1.65;51.79;98959.81;4174719;28;20232;-45
2022/03/04 02:37:21;;;;;;;19.23;13.23;;;;;;;1.66;51.89;98958.84;4173127;28;20278;-42
2022/03/04 02:39:24;;;;;;;18.17;13.13;;;;;;;1.59;52.16;98957.66;4176307;28;20232;-41
2022/03/04 02:41:26;;;;;;;21.40;14.60;;;;;;;0.90;53.01;98974.28;4183204;28;20228;-40
2022/03/04 02:43:27;;;;;;;16.47;12.10;;;;;;;1.24;53.04;98963.03;4177576;28;20740;-40
2022/03/04 02:45:29;;;;;;;19.70;13.40;;;;;;;1.31;52.79;98957.19;4181488;28;20232;-43
2022/03/04 02:47:31;;;;;;;19.73;13.50;;;;;;;1.10;53.34;98962.28;4168278;28;20228;-45
2022/03/04 02:49:33;;;;;;;18.63;13.63;;;;;;;1.16;53.31;98958.41;4180903;28;20255;-44
2022/03/04 02:51:35;;;;;;;19.43;13.10;;;;;;;1.14;53.45;98955.06;4174170;28;20713;-38
2022/03/04 02:53:37;;;;;;;17.67;13.80;;;;;;;1.08;53.53;98960.75;4174591;28;20231;-43
2022/03/04 02:55:39;;;;;;;18.43;12.50;;;;;;;1.21;53.25;98952.81;4175359;28;20232;-41
2022/03/04 02:57:44;;;;;;;17.43;12.63;;;;;;;0.88;53.49;98959.63;4176434;28;20281;-37
2022/03/04 02:59:45;;;;;;;19.10;14.10;;;;;;;0.94;53.62;98946.91;4177660;28;20246;-42
2022/03/04 03:01:47;;;;;;;17.13;12.47;;;;;;;0.66;54.30;98958.63;4168087;28;20551;-41
2022/03/04 03:03:49;;;;;;;18.60;14.00;;;;;;;0.66;54.45;98958.63;4173181;28;20271;-41
2022/03/04 03:05:51;;;;;;;18.80;13.73;;;;;;;0.91;54.07;98949.75;4180270;28;20233;-39
2022/03/04 03:07:52;;;;;;;22.47;13.90;;;;;;;0.86;54.37;98945.81;4182862;28;20235;-38
2022/03/04 03:09:54;;;;;;;21.33;13.30;;;;;;;0.80;54.18;98951.50;4190415;28;20230;-40
2022/03/04 03:11:56;;;;;;;21.20;13.63;;;;;;;0.48;54.62;98965.22;4190842;28;20223;-41
2022/03/04 03:13:57;;;;;;;20.90;14.10;;;;;;;0.71;54.46;98939.97;4180326;28;20237;-43
2022/03/04 03:15:59;;;;;;;21.87;13.83;;;;;;;0.84;54.54;98945.13;4179236;28;20725;-40
2022/03/04 03:18:01;;;;;;;20.93;14.57;;;;;;;0.79;54.68;98945.47;4174667;28;20223;-39
2022/03/04 03:20:05;;;;;;;18.97;13.70;;;;;;;0.90;54.44;98949.88;4173365;28;20317;-42
2022/03/04 03:22:07;;;;;;;20.17;14.40;;;;;;;0.83;54.72;98946.88;4178862;28;20228;-42
2022/03/04 03:24:08;;;;;;;23.53;14.70;;;;;;;0.63;54.77;98963.25;4183159;28;20632;-42
2022/03/04 03:26:10;;;;;;;19.60;13.43;;;;;;;1.05;54.15;98943.50;4184134;28;20242;-41
2022/03/04 03:28:12;;;;;;;20.67;13.93;;;;;;;0.68;55.15;98954.09;4178290;28;20270;-43
2022/03/04 03:30:14;;;;;;;23.90;16.20;;;;;;;0.93;54.27;98955.69;4176384;28;20240;-42
2022/03/04 03:32:16;;;;;;;23.30;15.97;;;;;;;1.15;54.00;98946.25;4180691;28;20232;-41
2022/03/04 03:34:17;;;;;;;23.20;15.50;;;;;;;0.89;54.49;98949.03;4174747;28;20237;-43
2022/03/04 03:36:20;;;;;;;20.07;15.67;;;;;;;1.02;54.12;98951.59;4181761;28;20229;-44
2022/03/04 03:38:23;;;;;;;25.60;17.27;;;;;;;0.74;54.95;98950.22;4183942;28;20234;-42
2022/03/04 03:40:25;;;;;;;21.63;14.53;;;;;;;0.87;54.50;98942.25;4181710;28;20232;-39
2022/03/04 03:42:27;;;;;;;22.33;14.93;;;;;;;0.77;54.92;98945.56;4187360;28;20828;-41
2022/03/04 03:44:29;;;;;;;23.17;15.77;;;;;;;0.75;54.74;98965.78;4184297;28;20312;-39
2022/03/04 03:46:31;;;;;;;22.23;16.40;;;;;;;0.40;55.48;98969.25;4193214;28;20230;-43
2022/03/04 03:48:34;;;;;;;24.23;15.67;;;;;;;0.89;55.01;98938.56;4184592;28;20239;-42
2022/03/04 03:50:38;;;;;;;22.80;17.57;;;;;;;1.21;54.19;98927.44;4179669;28;20252;-43
2022/03/04 03:52:40;;;;;;;22.47;15.97;;;;;;;0.84;54.87;98948.56;4182081;28;20232;-41
2022/03/04 03:54:41;;;;;;;26.27;17.03;;;;;;;0.62;54.86;98972.06;4185173;28;20293;-42
2022/03/04 03:56:43;;;;;;;25.03;16.47;;;;;;;1.60;53.52;98933.13;4183154;28;20227;-39
2022/03/04 03:58:45;;;;;;;26.00;17.20;;;;;;;1.13;54.35;98942.91;4177762;28;20234;-41
2022/03/04 04:00:47;;;;;;;22.27;16.43;;;;;;;0.69;55.23;98953.16;4177045;28;20224;-38
2022/03/04 04:02:49;;;;;;;22.93;17.13;;;;;;;0.89;54.75;98953.47;4170594;28;20242;-42
2022/03/04 04:04:51;;;;;;;22.00;15.43;;;;;;;1.09;54.94;98941.50;4186245;28;20269;-40
2022/03/04 04:06:52;;;;;;;25.03;16.70;;;;;;;1.63;53.25;98922.41;4177279;28;20233;-41
2022/03/04 04:08:54;;;;;;;23.57;16.93;;;;;;;1.55;53.11;98939.69;4181430;28;20722;-40
2022/03/04 04:10:56;;;;;;;24.90;16.33;;;;;;;1.31;53.87;98940.66;4176116;28;20621;-43
2022/03/04 04:12:57;;;;;;;25.50;17.80;;;;;;;1.47;52.96;98948.16;4176226;28;20565;-39
2022/03/04 04:14:59;;;;;;;22.83;15.33;;;;;;;1.57;52.78;98949.09;4185077;28;20231;-41
2022/03/04 04:17:01;;;;;;;25.30;16.73;;;;;;;1.41;53.50;98952.09;4192104;28;20251;-40
2022/03/04 04:19:03;;;;;;;24.50;17.20;;;;;;;1.00;54.76;98960.50;4185234;28;20709;-44
2022/03/04 04:21:06;;;;;;;25.27;17.00;;;;;;;1.14;54.11;98948.03;4176283;28;20293;-41
2022/03/04 04:23:08;;;;;;;26.87;17.23;;;;;;;1.02;54.75;98958.59;4176702;28;20626;-42
2022/03/04 04:25:10;;;;;;;23.97;16.40;;;;;;;0.98;54.77;98965.03;4186344;28;20318;-40
2022/03/04 04:27:11;;;;;;;26.40;18.27;;;;;;;0.87;54.92;98960.56;4190821;28;20251;-42
2022/03/04 04:29:13;;;;;;;24.53;17.57;;;;;;;1.27;54.05;98955.78;4176687;28;20243;-42
2022/03/04 04:31:15;;;;;;;22.87;16.50;;;;;;;1.06;54.75;98960.88;4186602;28;20231;-42
2022/03/04 04:33:17;;;;;;;27.20;18.67;;;;;;;1.18;54.06;98959.09;4190930;28;20231;-43
2022/03/04 04:35:24;;;;;;;26.93;17.63;;;;;;;1.20;54.19;98962.44;4180188;28;20314;-41
2022/03/04 04:37:26;;;;;;;23.77;16.93;;;;;;;1.17;54.15;98956.59;4180263;28;20610;-41
2022/03/04 04:39:28;;;;;;;23.30;18.00;;;;;;;1.05;53.97;98985.38;4174275;28;20232;-43
2022/03/04 04:41:30;;;;;;;24.47;16.97;;;;;;;1.28;53.91;98962.66;4169794;28;20281;-40
2022/03/04 04:43:31;;;;;;;24.83;17.77;;;;;;;1.46;53.66;98957.81;4171563;28;20290;-41
2022/03/04 04:45:33;;;;;;;27.07;17.97;;;;;;;1.33;53.68;98965.78;4171669;28;20240;-40
2022/03/04 04:47:35;;;;;;;24.77;18.33;;;;;;;1.35;53.93;98967.44;4166944;28;20236;-44
2022/03/04 04:49:38;;;;;;;26.20;18.70;;;;;;;1.36;53.81;98972.56;4172730;28;20441;-42
2022/03/04 04:51:40;;;;;;;25.57;18.33;;;;;;;1.55;53.29;98976.38;4173498;28;20740;-40
2022/03/04 04:53:41;;;;;;;26.20;17.53;;;;;;;1.50;53.48;98980.16;4173121;28;20237;-43
2022/03/04 04:55:43;;;;;;;25.83;16.90;;;;;;;1.43;53.52;98979.00;4171398;28;20232;-39
2022/03/04 04:57:45;;;;;;;27.23;18.63;;;;;;;1.14;53.84;99003.03;4176746;28;20261;-42
2022/03/04 04:59:47;;;;;;;25.77;18.63;;;;;;;1.29;53.96;98982.69;4173548;28;20232;-40
2022/03/04 05:01:49;;;;;;;28.03;17.80;;;;;;;0.70;55.42;99011.56;4173831;28;20232;-42
2022/03/04 05:03:51;;;;;;;28.90;18.53;;;;;;;1.52;53.56;98980.88;4190626;28;20239;-40
2022/03/04 05:05:54;;;;;;;26.63;18.53;;;;;;;1.43;53.48;98996.50;4176660;28;20255;-38
2022/03/04 05:07:55;;;;;;;26.00;17.83;;;;;;;1.31;54.07;98996.50;4174601;28;20596;-41
2022/03/04 05:09:57;;;;;;;25.30;18.03;;;;;;;1.74;52.80;98989.69;4175077;28;20227;-38
2022/03/04 05:11:59;;;;;;;26.73;18.30;;;;;;;1.43;53.78;98999.94;4176379;28;20233;-42
2022/03/04 05:14:01;;;;;;;29.00;19.33;;;;;;;1.18;54.29;99006.25;4171654;28;20232;-42
2022/03/04 05:16:03;;;;;;;24.40;17.37;;;;;;;1.23;53.95;99013.75;4180227;28;20228;-40
2022/03/04 05:18:05;;;;;;;25.53;19.50;;;;;;;1.04;54.30;99030.03;4176083;28;20700;-40
2022/03/04 05:20:07;;;;;;;28.30;18.77;;;;;;;1.28;53.62;99022.91;4183451;28;20239;-41
2022/03/04 05:22:09;;;;;;;22.87;16.87;;;;;;;1.25;54.26;99010.03;4177785;28;20857;-42
2022/03/04 05:24:11;;;;;;;26.30;17.00;;;;;;;0.85;54.51;99031.38;4175116;28;20232;-41
2022/03/04 05:26:13;;;;;;;25.30;16.93;;;;;;;0.82;55.24;99023.75;4181195;28;20820;-42
2022/03/04 05:28:15;;;;;;;27.57;18.93;;;;;;;0.85;54.99;99034.00;4178489;28;20231;-40
2022/03/04 05:30:17;;;;;;;27.27;19.97;;;;;;;0.49;55.88;99040.97;4185178;28;20278;-39
2022/03/04 05:32:19;;;;;;;33.93;20.43;;;;;;;0.48;55.88;99028.84;4175700;28;20236;-43
2022/03/04 05:34:20;;;;;;;29.43;19.80;;;;;;;0.46;56.33;99029.91;4176172;28;20564;-42
2022/03/04 05:36:23;;;;;;;31.80;20.53;;;;;;;0.82;55.60;99021.13;4176121;28;20267;-42
2022/03/04 05:38:24;;;;;;;29.83;21.33;;;;;;;0.58;56.28;99027.22;4177314;28;20236;-40
2022/03/04 05:40:26;;;;;;;30.07;21.73;;;;;;;0.67;56.32;99019.66;4180345;28;20227;-38
2022/03/04 05:42:28;;;;;;;30.07;19.70;;;;;;;0.51;56.10;99026.00;4172416;28;20235;-39
2022/03/04 05:44:29;;;;;;;27.57;19.77;;;;;;;0.25;56.83;99038.34;4174270;28;20292;-40
2022/03/04 05:46:32;;;;;;;26.37;19.03;;;;;;;0.09;57.07;99043.84;4173934;28;20224;-38
2022/03/04 05:48:34;;;;;;;28.97;19.20;;;;;;;0.20;57.31;99025.59;4175009;28;20242;-42
2022/03/04 05:50:36;;;;;;;26.47;18.47;;;;;;;0.34;56.76;99031.63;4183340;28;20259;-44
2022/03/04 05:52:38;;;;;;;28.40;19.07;;;;;;;0.05;57.41;99042.41;4174943;28;20224;-43
2022/03/04 05:54:40;;;;;;;27.17;19.80;;;;;;;0.70;56.26;99012.41;4172005;28;20587;-42
2022/03/04 05:56:42;;;;;;;28.47;18.70;;;;;;;0.49;56.37;99030.50;4178462;28;20738;-42
2022/03/04 05:58:45;;;;;;;30.47;20.80;;;;;;;0.17;56.68;99044.13;4177760;28;20231;-40
2022/03/04 06:00:47;;;;;;;29.20;18.97;;;;;;;0.60;56.19;99034.97;4180255;28;20231;-41
2022/03/04 06:02:49;;;;;;;26.77;18.10;;;;;;;0.50;56.71;99041.81;4169130;28;20861;-38
2022/03/04 06:04:51;;;;;;;26.17;18.37;;;;;;;0.66;56.00;99044.97;4174830;28;20232;-40
2022/03/04 06:06:52;;;;;;;25.53;18.33;;;;;;;0.48;56.57;99052.41;4191138;28;20239;-40
2022/03/04 06:08:54;;;;;;;25.57;18.50;;;;;;;0.70;56.10;99041.19;4183548;28;20251;-40
2022/03/04 06:10:56;;;;;;;27.90;19.00;;;;;;;0.43;56.39;99064.97;4175158;28;20270;-42
2022/03/04 06:12:58;;;;;;;26.87;19.20;;;;;;;0.68;56.30;99044.84;4175347;28;20227;-40
2022/03/04 06:14:59;;;;;;;26.63;17.07;;;;;;;0.39;56.42;99063.50;4174476;28;20662;-43
2022/03/04 06:17:01;;;;;;;28.87;19.63;;;;;;;0.34;57.13;99068.25;4173271;28;20725;-42
2022/03/04 06:19:10;;;;;;;26.33;18.17;;;;;;;0.37;57.24;99055.78;4178530;28;20628;-40
2022/03/04 06:21:11;;;;;;;26.80;18.77;;;;;;;0.71;56.21;99057.72;4175893;28;20242;-38
2022/03/04 06:23:14;;;;;;;27.03;18.03;;;;;;;0.06;56.94;99083.28;4182968;28;20281;-40
2022/03/04 06:25:15;;;;;;;25.97;17.97;;;;;;;0.41;57.05;99069.47;4174886;28;20243;-42
2022/03/04 06:27:17;;;;;;;27.60;19.40;;;;;;;0.16;58.05;99068.63;4176900;28;20235;-39
2022/03/04 06:29:19;;;;;;;30.23;19.07;;;;;;;0.69;56.28;99064.84;4189395;28;20261;-42
2022/03/04 06:31:21;;;;;;;29.37;19.23;;;;;;;0.36;57.38;99067.19;4180392;28;20326;-42
2022/03/04 06:33:32;;;;;;;25.27;18.80;;;;;;;0.58;56.65;99065.63;4174106;28;20434;-40
2022/03/04 06:35:34;;;;;;;29.47;18.53;;;;;;;0.45;56.68;99076.16;4174553;28;20722;-43
2022/03/04 06:37:36;;;;;;;28.20;18.80;;;;;;;0.57;56.92;99069.19;4174961;28;20305;-40
2022/03/04 06:39:38;;;;;;;26.13;18.43;;;;;;;0.45;57.50;99070.94;4173956;28;20224;-42
2022/03/04 06:41:40;;;;;;;29.53;19.57;;;;;;;0.76;56.37;99063.44;4174770;28;20232;-40
2022/03/04 06:43:43;;;;;;;26.57;18.80;;;;;;;0.63;56.43;99073.13;4175814;28;20242;-40
2022/03/04 06:45:46;;;;;;;27.43;19.43;;;;;;;0.16;57.92;99083.44;4182560;28;20705;-44
2022/03/04 06:47:48;;;;;;;26.77;18.50;;;;;;;0.04;58.10;99093.00;4183089;28;20744;-38
2022/03/04 06:49:50;;;;;;;28.47;19.53;;;;;;;0.85;56.36;99060.16;4173288;28;20756;-43
2022/03/04 06:51:51;;;;;;;26.70;19.03;;;;;;;0.54;56.91;99080.72;4167931;28;20733;-42
2022/03/04 06:53:53;;;;;;;26.33;19.93;;;;;;;0.20;58.12;99090.97;4174273;28;20589;-41
2022/03/04 06:55:55;;;;;;;28.47;19.83;;;;;;;0.89;56.68;99072.06;4176219;28;20289;-42
2022/03/04 06:57:56;;;;;;;29.17;20.23;;;;;;;0.49;57.37;99092.47;4178343;28;20992;-41
2022/03/04 06:59:58;;;;;;;26.93;19.43;;;;;;;1.07;56.24;99082.13;4173642;28;20744;-42
2022/03/04 07:02:00;;;;;;;27.53;20.53;;;;;;;1.01;56.23;99082.63;4175606;28;20751;-44
2022/03/04 07:04:02;;;;;;;27.93;19.67;;;;;;;0.87;56.36;99094.06;4167593;28;20235;-42
2022/03/04 07:06:04;;;;;;;28.53;19.17;;;;;;;0.80;56.57;99092.84;4174983;28;20227;-41
2022/03/04 07:08:07;;;;;;;27.00;19.27;;;;;;;1.01;56.31;99088.69;4182990;28;20309;-41
2022/03/04 07:10:09;;;;;;;27.83;19.97;;;;;;;0.53;57.01;99115.69;4182004;28;20232;-42
2022/03/04 07:12:11;;;;;;;29.07;20.93;;;;;;;0.66;56.86;99106.94;4187172;28;20515;-43
2022/03/04 07:14:12;;;;;;;28.93;20.43;;;;;;;0.82;56.85;99102.25;4174128;28;20702;-40
2022/03/04 07:16:14;;;;;;;32.93;22.87;;;;;;;0.88;56.67;99100.97;4175311;28;20227;-40
2022/03/04 07:18:16;;;;;;;37.80;24.83;;;;;;;0.55;57.17;99123.44;4180293;28;20231;-37
2022/03/04 07:20:17;;;;;;;39.00;25.67;;;;;;;0.54;57.54;99119.13;4174927;28;20642;-42
2022/03/04 07:22:19;;;;;;;34.23;23.27;;;;;;;0.59;57.52;99128.31;4173113;28;20235;-44
2022/03/04 07:24:21;;;;;;;32.30;22.70;;;;;;;1.04;57.14;99093.69;4186485;28;20239;-40
2022/03/04 07:26:22;;;;;;;30.00;20.90;;;;;;;0.64;57.41;99120.13;4191298;28;20243;-43
2022/03/04 07:28:24;;;;;;;30.73;21.37;;;;;;;0.82;57.55;99117.09;4177506;28;20236;-43
2022/03/04 07:30:26;;;;;;;27.23;19.60;;;;;;;0.07;59.03;99139.84;4188713;28;20897;-41
2022/03/04 07:32:28;;;;;;;30.63;20.73;;;;;;;0.69;58.50;99112.78;4175705;28;20240;-38
2022/03/04 07:34:30;;;;;;;29.80;20.33;;;;;;;0.80;58.07;99111.16;4179138;28;20679;-41
2022/03/04 07:36:33;;;;;;;32.10;22.10;;;;;;;1.21;56.74;99102.91;4186716;28;20235;-42
2022/03/04 07:38:34;;;;;;;31.27;22.17;;;;;;;0.46;57.91;99143.19;4186797;28;20588;-41
2022/03/04 07:40:37;;;;;;;32.37;23.33;;;;;;;0.94;57.49;99121.47;4175234;28;20232;-42
2022/03/04 07:42:40;;;;;;;27.77;20.63;;;;;;;0.97;56.71;99144.84;4173597;28;20735;-41
2022/03/04 07:44:42;;;;;;;28.97;20.23;;;;;;;1.08;57.29;99130.94;4182094;28;20239;-40
2022/03/04 07:46:44;;;;;;;30.20;20.50;;;;;;;0.90;57.49;99136.56;4185459;28;20239;-42
2022/03/04 07:48:46;;;;;;;29.17;19.77;;;;;;;1.12;57.57;99135.00;4187148;28;20228;-42
2022/03/04 07:50:48;;;;;;;29.90;20.97;;;;;;;1.57;56.53;99115.97;4177135;28;20247;-41
2022/03/04 07:52:49;;;;;;;30.90;20.83;;;;;;;1.14;58.15;99130.50;4182704;28;20294;-44
2022/03/04 07:54:51;;;;;;;28.70;21.57;;;;;;;1.58;56.71;99121.09;4178203;28;20248;-42
2022/03/04 07:56:53;;;;;;;33.33;22.00;;;;;;;1.82;55.39;99135.91;4193036;28;20239;-41
2022/03/04 07:58:54;;;;;;;31.50;20.77;;;;;;;1.51;55.62;99160.03;4185241;28;20779;-40
2022/03/04 08:00:56;;;;;;;30.10;20.03;;;;;;;1.72;56.09;99124.44;4183448;28;20298;-41
2022/03/04 08:03:18;;;;;;;32.60;22.90;;;;;;;1.84;54.74;99149.72;4177957;28;20606;-41
2022/03/04 08:05:20;;;;;;;32.10;22.33;;;;;;;1.72;55.25;99158.53;4179958;28;20230;-39
2022/03/04 08:07:22;;;;;;;33.23;23.27;;;;;;;1.72;55.45;99146.25;4177139;28;20228;-42
2022/03/04 08:09:24;;;;;;;28.37;21.50;;;;;;;2.07;55.26;99134.84;4188527;28;20623;-41
2022/03/04 08:11:27;;;;;;;27.70;21.00;;;;;;;1.75;55.67;99158.28;4184507;28;20232;-40
2022/03/04 08:13:28;;;;;;;28.73;21.83;;;;;;;1.46;55.71;99179.63;4189348;28;20230;-43
2022/03/04 08:15:30;;;;;;;27.23;20.53;;;;;;;1.88;56.08;99141.50;4182743;28;20618;-45
2022/03/04 08:17:32;;;;;;;29.97;20.30;;;;;;;1.76;56.49;99162.56;4180914;28;20239;-43
2022/03/04 08:19:35;;;;;;;23.40;17.93;;;;;;;2.03;54.84;99149.13;4193286;28;20225;-43
2022/03/04 08:21:37;;;;;;;27.70;20.77;;;;;;;2.24;55.10;99142.22;4184531;28;20225;-41
2022/03/04 08:23:39;;;;;;;29.70;18.93;;;;;;;2.42;54.62;99146.94;4188382;28;20283;-43
2022/03/04 08:25:41;;;;;;;28.57;21.10;;;;;;;2.27;54.91;99154.25;4176827;28;20230;-43
2022/03/04 08:27:43;;;;;;;28.13;20.00;;;;;;;2.34;53.69;99179.06;4177108;28;20257;-43
2022/03/04 08:29:45;;;;;;;27.27;20.20;;;;;;;2.37;54.18;99168.31;4176381;28;20234;-38
2022/03/04 08:31:46;;;;;;;29.17;22.00;;;;;;;2.48;53.70;99169.25;4176028;28;20238;-42
2022/03/04 08:33:48;;;;;;;26.50;20.97;;;;;;;2.82;54.02;99144.63;4177239;28;20230;-40
2022/03/04 08:35:50;;;;;;;34.80;20.63;;;;;;;3.33;52.43;99156.25;4183743;28;20233;-41
2022/03/04 08:37:55;;;;;;;26.60;20.10;;;;;;;2.86;53.13;99174.09;4179306;28;20652;-41
2022/03/04 08:39:56;;;;;;;32.73;23.47;;;;;;;3.07;53.09;99160.16;4174843;28;20239;-39
2022/03/04 08:41:58;;;;;;;34.83;21.60;;;;;;;2.74;53.58;99186.41;4167320;28;20262;-43
2022/03/04 08:44:01;;;;;;;31.87;22.13;;;;;;;3.12;52.88;99156.19;4176882;28;20234;-41
2022/03/04 08:46:03;;;;;;;23.20;18.47;;;;;;;3.12;52.60;99169.34;4163244;28;20300;-42
2022/03/04 08:48:06;;;;;;;25.97;19.53;;;;;;;3.39;51.69;99183.78;4193241;28;20270;-39
2022/03/04 08:50:08;;;;;;;32.10;19.93;;;;;;;2.82;52.19;99196.28;4177915;28;20237;-41
2022/03/04 08:52:10;;;;;;;28.33;20.57;;;;;;;2.97;53.27;99178.47;4176969;28;20719;-42
2022/03/04 08:54:12;;;;;;;31.57;19.43;;;;;;;3.57;51.75;99168.34;4176375;28;20241;-40
2022/03/04 08:56:13;;;;;;;26.77;19.40;;;;;;;3.19;52.38;99185.44;4192742;28;20238;-40
2022/03/04 08:58:15;;;;;;;24.20;18.73;;;;;;;3.47;51.31;99181.41;4182355;28;20238;-42
2022/03/04 09:00:17;;;;;;;25.53;18.00;;;;;;;3.65;50.58;99178.19;4178475;28;20234;-42
2022/03/04 09:02:19;;;;;;;25.03;17.97;;;;;;;3.57;52.00;99182.31;4181431;28;20227;-42
2022/03/04 09:04:21;;;;;;;24.77;18.47;;;;;;;3.62;52.24;99194.22;4176213;28;20243;-43
2022/03/04 09:06:23;;;;;;;28.80;19.37;;;;;;;3.82;50.61;99197.81;4176147;28;20309;-41
2022/03/04 09:08:24;;;;;;;26.20;18.70;;;;;;;3.57;50.73;99211.22;4176097;28;20272;-44
2022/03/04 09:10:27;;;;;;;28.23;19.13;;;;;;;3.80;50.82;99192.69;4176276;28;20739;-43
2022/03/04 09:12:29;;;;;;;24.63;18.83;;;;;;;4.39;49.59;99182.44;4184287;28;20241;-41
2022/03/04 09:14:30;;;;;;;25.33;18.23;;;;;;;4.27;49.88;99189.59;4182028;28;20385;-43
2022/03/04 09:16:32;;;;;;;25.90;18.93;;;;;;;4.43;50.24;99195.22;4176227;28;20258;-42
2022/03/04 09:18:34;;;;;;;26.27;18.47;;;;;;;4.28;50.16;99200.00;4175261;28;20293;-41
2022/03/04 09:20:37;;;;;;;24.13;17.87;;;;;;;4.13;50.54;99199.50;4175843;28;20590;-42
2022/03/04 09:22:39;;;;;;;25.83;18.97;;;;;;;4.00;50.70;99195.44;4181313;28;20291;-44
2022/03/04 09:24:40;;;;;;;25.10;18.67;;;;;;;3.94;51.14;99204.69;4177681;28;20228;-44
2022/03/04 09:26:42;;;;;;;29.47;20.27;;;;;;;4.52;49.94;99184.84;4190119;28;21123;-44